createdAt,value
2017-11-14T00:00:44.953Z,9.33
2017-11-14T00:03:11.182Z,9.30
2017-11-14T00:05:37.475Z,8.23
2017-11-14T00:08:04.450Z,9.87
2017-11-14T00:10:30.677Z,10.07
2017-11-14T00:12:56.912Z,8.83
2017-11-14T00:15:24.134Z,9.60
2017-11-14T00:17:51.107Z,10.00
2017-11-14T00:20:17.387Z,8.27
2017-11-14T00:22:44.344Z,8.83
2017-11-14T00:25:11.331Z,8.90
2017-11-14T00:27:37.597Z,7.83
2017-11-14T00:30:03.878Z,8.33
2017-11-14T00:32:32.021Z,8.37
2017-11-14T00:34:58.291Z,9.17
2017-11-14T00:37:25.012Z,8.07
2017-11-14T00:39:51.948Z,8.27
2017-11-14T00:42:18.934Z,7.97
2017-11-14T00:44:45.233Z,6.57
2017-11-14T00:47:12.200Z,8.27
2017-11-14T00:49:38.429Z,7.77
2017-11-14T00:52:04.662Z,7.27
2017-11-14T00:54:30.871Z,6.80
2017-11-14T00:56:57.069Z,7.60
2017-11-14T00:59:25.620Z,7.27
2017-11-14T01:01:52.747Z,6.80
2017-11-14T01:04:18.973Z,6.90
2017-11-14T01:06:45.219Z,6.93
2017-11-14T01:09:11.425Z,7.30
2017-11-14T01:11:37.647Z,6.83
2017-11-14T01:14:03.876Z,8.43
2017-11-14T01:16:30.853Z,6.93
2017-11-14T01:18:57.115Z,7.10
2017-11-14T01:21:24.069Z,6.80
2017-11-14T01:23:51.086Z,7.60
2017-11-14T01:26:17.341Z,7.10
2017-11-14T01:28:44.241Z,8.17
2017-11-14T01:31:10.464Z,7.20
2017-11-14T01:33:36.707Z,6.83
2017-11-14T01:36:03.019Z,7.60
2017-11-14T01:38:29.339Z,6.03
2017-11-14T01:40:56.640Z,7.23
2017-11-14T01:43:22.904Z,6.20
2017-11-14T01:45:53.766Z,6.83
2017-11-14T01:48:20.078Z,6.30
2017-11-14T01:50:46.306Z,6.90
2017-11-14T01:53:13.554Z,7.10
2017-11-14T01:55:41.316Z,7.00
2017-11-14T01:58:08.304Z,6.77
2017-11-14T02:00:46.877Z,6.83
2017-11-14T02:03:13.888Z,6.97
2017-11-14T02:05:41.288Z,6.90
2017-11-14T02:08:08.914Z,6.80
2017-11-14T02:10:37.508Z,7.17
2017-11-14T02:13:04.501Z,6.93
2017-11-14T02:15:30.744Z,7.60
2017-11-14T02:17:56.924Z,7.30
2017-11-14T02:20:23.865Z,6.90
2017-11-14T02:22:50.868Z,6.83
2017-11-14T02:25:17.132Z,8.27
2017-11-14T02:27:44.280Z,7.37
2017-11-14T02:30:12.233Z,7.77
2017-11-14T02:32:38.498Z,8.50
2017-11-14T02:35:05.493Z,8.20
2017-11-14T02:37:31.729Z,6.60
2017-11-14T02:39:58.025Z,7.43
2017-11-14T02:42:25.290Z,6.90
2017-11-14T02:44:51.557Z,7.27
2017-11-14T02:47:17.856Z,6.70
2017-11-14T02:49:44.126Z,6.20
2017-11-14T02:52:11.118Z,7.30
2017-11-14T02:54:37.925Z,6.63
2017-11-14T02:57:04.928Z,7.53
2017-11-14T02:59:31.207Z,6.40
2017-11-14T03:01:58.225Z,6.20
2017-11-14T03:04:24.476Z,6.80
2017-11-14T03:06:52.014Z,6.37
2017-11-14T03:09:18.314Z,7.17
2017-11-14T03:11:44.604Z,6.87
2017-11-14T03:14:11.540Z,7.00
2017-11-14T03:16:38.605Z,7.63
2017-11-14T03:19:04.915Z,6.47
2017-11-14T03:21:31.148Z,6.03
2017-11-14T03:23:58.136Z,7.40
2017-11-14T03:26:24.343Z,7.40
2017-11-14T03:28:50.570Z,7.70
2017-11-14T03:31:16.842Z,7.17
2017-11-14T03:33:43.105Z,7.70
2017-11-14T03:36:10.116Z,7.00
2017-11-14T03:38:36.404Z,7.27
2017-11-14T03:41:02.676Z,7.20
2017-11-14T03:43:28.985Z,8.30
2017-11-14T03:45:55.332Z,7.50
2017-11-14T03:48:21.612Z,7.60
2017-11-14T03:50:48.613Z,7.23
2017-11-14T03:53:14.947Z,7.87
2017-11-14T03:55:41.224Z,7.97
2017-11-14T03:58:07.438Z,8.20
2017-11-14T04:00:34.452Z,7.53
2017-11-14T04:03:00.703Z,7.80
2017-11-14T04:05:27.701Z,7.43
2017-11-14T04:07:54.003Z,7.83
2017-11-14T04:10:20.298Z,8.47
2017-11-14T04:12:47.283Z,8.53
2017-11-14T04:15:14.357Z,8.53
2017-11-14T04:17:40.566Z,8.00
2017-11-14T04:20:06.744Z,7.70
2017-11-14T04:22:32.988Z,7.60
2017-11-14T04:25:00.012Z,6.80
2017-11-14T04:27:26.304Z,7.57
2017-11-14T04:29:52.571Z,8.23
2017-11-14T04:32:18.844Z,8.23
2017-11-14T04:34:45.050Z,6.77
2017-11-14T04:37:12.363Z,7.57
2017-11-14T04:39:38.580Z,7.47
2017-11-14T04:42:04.822Z,7.90
2017-11-14T04:44:31.072Z,6.90
2017-11-14T04:46:57.296Z,7.07
2017-11-14T04:49:23.545Z,6.80
2017-11-14T04:51:50.550Z,7.30
2017-11-14T04:54:16.769Z,7.33
2017-11-14T04:56:43.063Z,6.80
2017-11-14T04:59:10.027Z,7.10
2017-11-14T05:01:43.132Z,7.17
2017-11-14T05:04:09.303Z,8.53
2017-11-14T05:06:35.532Z,7.80
2017-11-14T05:09:02.605Z,8.00
2017-11-14T05:11:29.584Z,7.43
2017-11-14T05:13:55.860Z,8.40
2017-11-14T05:16:22.844Z,8.30
2017-11-14T05:18:49.048Z,7.70
2017-11-14T05:21:15.316Z,8.87
2017-11-14T05:23:41.534Z,8.70
2017-11-14T05:26:07.773Z,9.10
2017-11-14T05:28:34.052Z,8.00
2017-11-14T05:31:02.697Z,8.67
2017-11-14T05:33:28.911Z,8.17
2017-11-14T05:35:56.229Z,7.57
2017-11-14T05:38:23.026Z,7.60
2017-11-14T05:40:49.235Z,7.87
2017-11-14T05:43:15.515Z,8.03
2017-11-14T05:45:43.105Z,7.97
2017-11-14T05:48:09.337Z,8.83
2017-11-14T05:50:36.319Z,8.30
2017-11-14T05:53:04.014Z,8.97
2017-11-14T05:55:31.525Z,8.67
2017-11-14T05:57:57.817Z,8.67
2017-11-14T06:00:24.901Z,9.60
2017-11-14T06:02:52.071Z,8.87
2017-11-14T06:05:18.361Z,8.10
2017-11-14T06:07:44.581Z,7.70
2017-11-14T06:10:11.639Z,7.70
2017-11-14T06:12:37.880Z,7.20
2017-11-14T06:15:04.834Z,8.20
2017-11-14T06:17:31.119Z,7.73
2017-11-14T06:19:57.409Z,8.33
2017-11-14T06:22:23.671Z,9.57
2017-11-14T06:24:49.900Z,8.30
2017-11-14T06:27:16.945Z,7.90
2017-11-14T06:29:43.956Z,8.30
2017-11-14T06:32:10.185Z,7.13
2017-11-14T06:34:37.609Z,7.60
2017-11-14T06:37:03.926Z,7.70
2017-11-14T06:39:31.135Z,9.70
2017-11-14T06:41:57.329Z,8.57
2017-11-14T06:44:23.633Z,8.43
2017-11-14T06:46:50.808Z,11.00
2017-11-14T06:49:16.985Z,8.53
2017-11-14T06:51:43.211Z,7.90
2017-11-14T06:54:09.763Z,8.67
2017-11-14T06:56:36.023Z,7.70
2017-11-14T06:59:02.341Z,7.63
2017-11-14T07:01:29.338Z,8.07
2017-11-14T07:03:55.636Z,7.70
2017-11-14T07:06:21.950Z,7.17
2017-11-14T07:08:48.964Z,7.30
2017-11-14T07:11:15.936Z,7.70
2017-11-14T07:13:42.917Z,7.47
2017-11-14T07:16:09.170Z,8.37
2017-11-14T07:18:35.380Z,8.67
2017-11-14T07:21:01.634Z,9.70
2017-11-14T07:23:27.874Z,9.13
2017-11-14T07:25:54.104Z,9.13
2017-11-14T07:28:20.345Z,9.20
2017-11-14T07:30:47.317Z,8.97
2017-11-14T07:33:13.509Z,9.83
2017-11-14T07:35:39.702Z,9.20
2017-11-14T07:38:05.918Z,9.40
2017-11-14T07:40:32.121Z,21.40
2017-11-14T07:42:59.128Z,9.60
2017-11-14T07:45:26.096Z,9.57
2017-11-14T07:47:53.052Z,9.67
2017-11-14T07:50:20.707Z,8.47
2017-11-14T07:52:47.712Z,9.10
2017-11-14T07:55:13.980Z,8.70
2017-11-14T07:57:40.981Z,9.10
2017-11-14T08:00:07.240Z,7.73
2017-11-14T08:02:34.272Z,7.87
2017-11-14T08:05:00.732Z,9.20
2017-11-14T08:07:27.714Z,8.90
2017-11-14T08:09:54.040Z,8.53
2017-11-14T08:12:20.255Z,9.00
2017-11-14T08:14:47.188Z,7.70
2017-11-14T08:17:14.233Z,8.10
2017-11-14T08:19:41.247Z,8.53
2017-11-14T08:22:07.791Z,7.97
2017-11-14T08:24:33.982Z,8.30
2017-11-14T08:27:00.227Z,7.83
2017-11-14T08:29:26.532Z,7.97
2017-11-14T08:31:52.746Z,7.40
2017-11-14T08:34:19.681Z,7.63
2017-11-14T08:36:46.752Z,7.83
2017-11-14T08:39:12.966Z,7.73
2017-11-14T08:41:39.937Z,7.70
2017-11-14T08:44:06.192Z,7.70
2017-11-14T08:46:32.841Z,7.37
2017-11-14T08:48:59.077Z,9.93
2017-11-14T08:51:25.291Z,7.83
2017-11-14T08:53:51.500Z,7.77
2017-11-14T08:56:17.714Z,7.90
2017-11-14T08:58:43.926Z,8.37
2017-11-14T09:01:10.209Z,7.63
2017-11-14T09:03:36.511Z,8.07
2017-11-14T09:06:02.797Z,8.10
2017-11-14T09:08:29.824Z,8.73
2017-11-14T09:10:56.808Z,8.67
2017-11-14T09:13:23.037Z,15.90
2017-11-14T09:15:50.094Z,10.00
2017-11-14T09:18:16.337Z,7.50
2017-11-14T09:20:42.627Z,8.03
2017-11-14T09:23:09.625Z,8.30
2017-11-14T09:25:35.908Z,7.67
2017-11-14T09:28:02.962Z,8.63
2017-11-14T09:30:29.277Z,7.30
2017-11-14T09:32:56.292Z,7.70
2017-11-14T09:35:22.567Z,8.43
2017-11-14T09:37:48.884Z,8.37
2017-11-14T09:40:15.892Z,7.70
2017-11-14T09:42:42.218Z,8.00
2017-11-14T09:45:08.497Z,8.17
2017-11-14T09:47:35.512Z,8.30
2017-11-14T09:50:02.549Z,8.10
2017-11-14T09:52:28.878Z,8.97
2017-11-14T09:54:55.151Z,7.90
2017-11-14T09:57:22.145Z,11.33
2017-11-14T09:59:48.426Z,10.20
2017-11-14T10:02:15.388Z,8.70
2017-11-14T10:04:41.680Z,10.40
2017-11-14T10:07:08.624Z,9.10
2017-11-14T10:09:34.919Z,7.87
2017-11-14T10:12:01.184Z,8.97
2017-11-14T10:14:27.475Z,8.73
2017-11-14T10:16:53.752Z,9.23
2017-11-14T10:19:20.776Z,8.60
2017-11-14T10:21:47.041Z,7.77
2017-11-14T10:24:14.057Z,9.13
2017-11-14T10:26:40.335Z,7.90
2017-11-14T10:29:06.632Z,9.40
2017-11-14T10:31:33.639Z,8.47
2017-11-14T10:33:59.874Z,9.10
2017-11-14T10:36:26.152Z,9.33
2017-11-14T10:38:53.132Z,9.07
2017-11-14T10:41:19.475Z,8.57
2017-11-14T10:43:45.717Z,9.57
2017-11-14T10:46:11.970Z,9.97
2017-11-14T10:48:39.005Z,9.23
2017-11-14T10:51:05.261Z,9.27
2017-11-14T10:53:32.262Z,8.77
2017-11-14T10:55:58.561Z,9.00
2017-11-14T10:58:24.858Z,9.80
2017-11-14T11:00:51.097Z,9.60
2017-11-14T11:03:18.128Z,8.93
2017-11-14T11:05:45.166Z,10.00
2017-11-14T11:08:12.204Z,10.10
2017-11-14T11:10:38.446Z,9.47
2017-11-14T11:13:05.448Z,9.97
2017-11-14T11:15:31.752Z,9.77
2017-11-14T11:17:58.756Z,9.80
2017-11-14T11:20:24.960Z,9.20
2017-11-14T11:22:51.219Z,9.83
2017-11-14T11:25:17.605Z,9.90
2017-11-14T11:27:43.816Z,8.67
2017-11-14T11:30:10.775Z,7.57
2017-11-14T11:32:36.989Z,8.33
2017-11-14T11:35:03.974Z,7.70
2017-11-14T11:37:30.232Z,8.10
2017-11-14T11:39:56.534Z,9.10
2017-11-14T11:42:22.777Z,11.97
2017-11-14T11:44:49.058Z,7.93
2017-11-14T11:47:16.102Z,10.20
2017-11-14T11:49:43.085Z,8.77
2017-11-14T11:52:09.357Z,9.90
2017-11-14T11:54:35.632Z,8.87
2017-11-14T11:57:01.871Z,9.97
2017-11-14T11:59:28.089Z,10.10
2017-11-14T12:01:54.397Z,10.53
2017-11-14T12:04:21.411Z,9.60
2017-11-14T12:06:47.673Z,10.20
2017-11-14T12:09:14.651Z,9.93
2017-11-14T12:11:40.932Z,9.87
2017-11-14T12:14:07.904Z,10.47
2017-11-14T12:16:34.261Z,10.97
2017-11-14T12:19:00.509Z,10.40
2017-11-14T12:21:26.790Z,11.80
2017-11-14T12:23:53.007Z,11.17
2017-11-14T12:26:20.038Z,11.33
2017-11-14T12:28:46.993Z,10.93
2017-11-14T12:31:13.318Z,11.70
2017-11-14T12:33:40.357Z,11.73
2017-11-14T12:36:07.354Z,11.50
2017-11-14T12:38:33.645Z,11.17
2017-11-14T12:41:00.738Z,11.80
2017-11-14T12:43:27.119Z,11.10
2017-11-14T12:45:54.160Z,10.70
2017-11-14T12:48:20.418Z,10.07
2017-11-14T12:50:47.420Z,11.20
2017-11-14T12:53:13.715Z,9.93
2017-11-14T12:55:39.967Z,10.40
2017-11-14T12:58:06.367Z,10.20
2017-11-14T13:00:32.618Z,10.77
2017-11-14T13:02:58.990Z,9.60
2017-11-14T13:05:25.918Z,10.30
2017-11-14T13:07:52.416Z,11.17
2017-11-14T13:10:18.810Z,10.00
2017-11-14T13:12:45.805Z,10.40
2017-11-14T13:15:12.066Z,10.27
2017-11-14T13:17:38.377Z,10.27
2017-11-14T13:20:04.676Z,11.43
2017-11-14T13:22:30.975Z,10.87
2017-11-14T13:24:57.971Z,9.40
2017-11-14T13:27:24.226Z,9.90
2017-11-14T13:29:51.213Z,11.67
2017-11-14T13:32:18.252Z,11.00
2017-11-14T13:34:45.249Z,12.53
2017-11-14T13:37:11.507Z,12.17
2017-11-14T13:39:37.765Z,12.23
2017-11-14T13:42:04.799Z,13.20
2017-11-14T13:44:31.812Z,12.23
2017-11-14T13:46:58.063Z,10.57
2017-11-14T13:49:25.044Z,11.20
2017-11-14T13:51:51.340Z,11.83
2017-11-14T13:54:18.340Z,11.40
2017-11-14T13:56:44.644Z,10.50
2017-11-14T13:59:10.904Z,9.60
2017-11-14T14:01:37.110Z,10.50
2017-11-14T14:04:03.282Z,10.60
2017-11-14T14:06:30.384Z,12.30
2017-11-14T14:08:56.664Z,11.50
2017-11-14T14:11:24.365Z,11.47
2017-11-14T14:13:50.664Z,10.50
2017-11-14T14:16:16.933Z,11.90
2017-11-14T14:18:43.177Z,11.77
2017-11-14T14:21:09.493Z,11.83
2017-11-14T14:23:35.704Z,11.83
2017-11-14T14:26:02.657Z,11.17
2017-11-14T14:28:29.728Z,11.27
2017-11-14T14:30:56.020Z,11.37
2017-11-14T14:33:22.976Z,8.13
2017-11-14T14:35:49.955Z,8.43
2017-11-14T14:38:16.182Z,8.50
2017-11-14T14:40:42.377Z,8.87
2017-11-14T14:43:09.367Z,8.00
2017-11-14T14:45:35.631Z,8.80
2017-11-14T14:48:02.622Z,8.13
2017-11-14T14:50:28.832Z,8.90
2017-11-14T14:52:55.824Z,8.10
2017-11-14T14:55:22.052Z,10.30
2017-11-14T14:57:48.281Z,10.20
2017-11-14T15:00:14.593Z,12.10
2017-11-14T15:02:40.841Z,11.80
2017-11-14T15:05:07.073Z,12.37
2017-11-14T15:07:33.709Z,11.00
2017-11-14T15:09:59.930Z,12.80
2017-11-14T15:12:26.119Z,12.63
2017-11-14T15:14:52.407Z,13.43
2017-11-14T15:17:18.687Z,12.77
2017-11-14T15:19:44.962Z,13.90
2017-11-14T15:22:11.206Z,14.60
2017-11-14T15:24:37.484Z,13.40
2017-11-14T15:27:03.756Z,13.73
2017-11-14T15:29:30.789Z,14.90
2017-11-14T15:31:57.052Z,14.57
2017-11-14T15:34:23.984Z,15.87
2017-11-14T15:36:51.007Z,14.30
2017-11-14T15:39:17.231Z,14.17
2017-11-14T15:41:43.473Z,13.60
2017-11-14T15:44:09.757Z,15.07
2017-11-14T15:46:36.020Z,13.70
2017-11-14T15:49:02.292Z,13.93
2017-11-14T15:51:29.285Z,14.00
2017-11-14T15:53:55.575Z,14.43
2017-11-14T15:56:22.557Z,14.37
2017-11-14T15:58:48.777Z,13.00
2017-11-14T16:01:14.978Z,15.53
2017-11-14T16:03:41.979Z,15.43
2017-11-14T16:06:08.185Z,14.00
2017-11-14T16:08:34.458Z,13.70
2017-11-14T16:11:00.691Z,14.63
2017-11-14T16:13:27.711Z,14.53
2017-11-14T16:15:54.009Z,17.60
2017-11-14T16:18:20.245Z,15.03
2017-11-14T16:20:46.538Z,16.00
2017-11-14T16:23:13.586Z,17.67
2017-11-14T16:25:40.647Z,15.70
2017-11-14T16:28:06.881Z,20.30
2017-11-14T16:30:33.150Z,19.13
2017-11-14T16:32:59.390Z,17.37
2017-11-14T16:35:25.632Z,17.97
2017-11-14T16:37:52.583Z,18.67
2017-11-14T16:40:19.541Z,19.90
2017-11-14T16:42:46.524Z,19.47
2017-11-14T16:45:13.232Z,18.87
2017-11-14T16:47:40.215Z,19.60
2017-11-14T16:50:06.459Z,17.90
2017-11-14T16:52:32.725Z,17.77
2017-11-14T16:54:59.730Z,24.20
2017-11-14T16:57:26.031Z,18.20
2017-11-14T16:59:52.289Z,19.00
2017-11-14T17:02:18.558Z,18.60
2017-11-14T17:04:44.824Z,18.70
2017-11-14T17:07:17.993Z,17.40
2017-11-14T17:09:45.021Z,18.57
2017-11-14T17:12:11.990Z,18.90
2017-11-14T17:14:38.953Z,18.60
2017-11-14T17:17:05.285Z,18.40
2017-11-14T17:22:05.291Z,20.17
2017-11-14T17:24:32.270Z,18.00
2017-11-14T17:26:58.508Z,18.80
2017-11-14T17:29:24.796Z,21.10
2017-11-14T17:31:51.765Z,19.43
2017-11-14T17:34:18.043Z,21.17
2017-11-14T17:36:44.330Z,19.33
2017-11-14T17:39:10.541Z,20.80
2017-11-14T17:41:37.487Z,22.27
2017-11-14T17:44:03.745Z,20.57
2017-11-14T17:46:29.984Z,20.50
2017-11-14T17:48:56.270Z,19.67
2017-11-14T17:51:23.217Z,20.07
2017-11-14T17:53:49.494Z,20.20
2017-11-14T17:56:15.734Z,19.30
2017-11-14T17:58:42.730Z,20.43
2017-11-14T18:01:08.934Z,19.67
2017-11-14T18:03:36.012Z,20.40
2017-11-14T18:06:02.273Z,20.70
2017-11-14T18:08:28.572Z,19.07
2017-11-14T18:10:55.770Z,17.50
2017-11-14T18:13:22.028Z,16.47
2017-11-14T18:15:50.263Z,16.40
2017-11-14T18:18:16.557Z,16.90
2017-11-14T18:20:42.844Z,16.90
2017-11-14T18:23:09.089Z,21.60
2017-11-14T18:25:36.070Z,17.20
2017-11-14T18:28:02.313Z,17.53
2017-11-14T18:30:28.560Z,17.50
2017-11-14T18:32:54.841Z,19.13
2017-11-14T18:35:21.092Z,19.17
2017-11-14T18:37:47.322Z,19.07
2017-11-14T18:40:13.549Z,14.67
2017-11-14T18:42:39.776Z,17.40
2017-11-14T18:45:06.014Z,19.77
2017-11-14T18:47:32.279Z,18.83
2017-11-14T18:49:58.536Z,18.07
2017-11-14T18:52:24.804Z,17.97
2017-11-14T18:54:51.086Z,19.43
2017-11-14T18:57:18.010Z,18.67
2017-11-14T18:59:44.929Z,19.30
2017-11-14T19:02:11.183Z,19.60
2017-11-14T19:04:37.396Z,18.77
2017-11-14T19:07:03.646Z,18.73
2017-11-14T19:09:30.602Z,18.90
2017-11-14T19:11:57.561Z,18.10
2017-11-14T19:14:24.454Z,18.40
2017-11-14T19:16:50.694Z,18.53
2017-11-14T19:19:16.865Z,20.47
2017-11-14T19:21:43.098Z,18.80
2017-11-14T19:24:09.334Z,20.03
2017-11-14T19:26:35.534Z,19.30
2017-11-14T19:29:02.535Z,15.80
2017-11-14T19:31:28.822Z,17.00
2017-11-14T19:33:55.049Z,16.20
2017-11-14T19:36:22.004Z,16.17
2017-11-14T19:38:48.238Z,17.60
2017-11-14T19:41:14.509Z,18.60
2017-11-14T19:43:40.733Z,19.63
2017-11-14T19:46:07.021Z,16.33
2017-11-14T19:48:33.336Z,18.20
2017-11-14T19:51:00.382Z,18.00
2017-11-14T19:53:27.432Z,18.50
2017-11-14T19:55:53.687Z,17.30
2017-11-14T19:58:19.941Z,19.27
2017-11-14T20:00:46.216Z,18.77
2017-11-14T20:03:13.175Z,18.23
2017-11-14T20:05:39.370Z,17.73
2017-11-14T20:08:06.317Z,19.47
2017-11-14T20:10:32.591Z,16.70
2017-11-14T20:12:59.889Z,22.30
2017-11-14T20:15:26.149Z,16.80
2017-11-14T20:17:53.123Z,16.47
2017-11-14T20:20:19.417Z,18.33
2017-11-14T20:22:46.469Z,20.03
2017-11-14T20:25:13.543Z,18.93
2017-11-14T20:27:39.858Z,16.63
2017-11-14T20:30:06.073Z,16.90
2017-11-14T20:32:33.051Z,27.23
2017-11-14T20:34:59.356Z,19.17
2017-11-14T20:37:25.655Z,20.50
2017-11-14T20:39:52.610Z,18.00
2017-11-14T20:42:19.579Z,15.50
2017-11-14T20:44:46.077Z,17.63
2017-11-14T20:47:12.347Z,17.93
2017-11-14T20:49:38.597Z,16.30
2017-11-14T20:52:04.828Z,17.60
2017-11-14T20:54:31.134Z,15.63
2017-11-14T20:56:57.434Z,20.73
2017-11-14T20:59:23.671Z,17.80
2017-11-14T21:01:50.726Z,18.20
2017-11-14T21:04:17.779Z,15.93
2017-11-14T21:06:44.772Z,18.67
2017-11-14T21:09:11.023Z,16.57
2017-11-14T21:11:41.380Z,16.73
2017-11-14T21:14:08.319Z,16.40
2017-11-14T21:16:35.348Z,16.27
2017-11-14T21:19:01.536Z,18.20
2017-11-14T21:21:27.824Z,17.47
2017-11-14T21:23:54.887Z,17.93
2017-11-14T21:26:21.133Z,19.27
2017-11-14T21:28:47.459Z,17.60
2017-11-14T21:31:13.760Z,17.10
2017-11-14T21:33:40.827Z,17.07
2017-11-14T21:36:07.072Z,17.33
2017-11-14T21:38:33.292Z,18.20
2017-11-14T21:40:59.554Z,15.30
2017-11-14T21:43:25.793Z,18.00
2017-11-14T21:45:52.025Z,16.77
2017-11-14T21:48:18.206Z,16.87
2017-11-14T21:50:44.472Z,17.70
2017-11-14T21:53:10.717Z,16.70
2017-11-14T21:55:36.981Z,16.30
2017-11-14T21:58:03.177Z,15.37
2017-11-14T22:00:29.445Z,15.97
2017-11-14T22:02:55.707Z,15.47
2017-11-14T22:05:22.014Z,16.60
2017-11-14T22:07:48.267Z,15.67
2017-11-14T22:10:14.532Z,18.03
2017-11-14T22:12:41.511Z,15.67
2017-11-14T22:15:07.880Z,17.73
2017-11-14T22:17:34.131Z,16.27
2017-11-14T22:20:00.308Z,16.80
2017-11-14T22:22:26.570Z,15.77
2017-11-14T22:24:52.764Z,17.67
2017-11-14T22:27:19.041Z,18.17
2017-11-14T22:29:46.038Z,16.60
2017-11-14T22:32:12.275Z,16.70
2017-11-14T22:34:38.518Z,16.70
2017-11-14T22:37:04.861Z,16.53
2017-11-14T22:39:31.114Z,17.17
2017-11-14T22:41:58.140Z,18.63
2017-11-14T22:44:24.389Z,16.70
2017-11-14T22:46:51.440Z,16.67
2017-11-14T22:49:18.432Z,17.07
2017-11-14T22:51:44.707Z,17.00
2017-11-14T22:54:10.980Z,15.93
2017-11-14T22:56:37.233Z,17.77
2017-11-14T22:59:03.448Z,18.93
2017-11-14T23:01:29.669Z,17.10
2017-11-14T23:03:55.926Z,17.80
2017-11-14T23:06:22.199Z,19.50
2017-11-14T23:08:49.224Z,16.90
2017-11-14T23:11:16.208Z,17.23
2017-11-14T23:13:42.457Z,18.07
2017-11-14T23:16:08.701Z,16.33
2017-11-14T23:18:34.977Z,18.50
2017-11-14T23:21:01.973Z,18.20
2017-11-14T23:23:28.239Z,16.80
2017-11-14T23:25:55.202Z,16.70
2017-11-14T23:28:22.167Z,17.50
2017-11-14T23:30:48.435Z,16.40
2017-11-14T23:33:14.686Z,17.60
2017-11-14T23:35:40.950Z,16.53
2017-11-14T23:38:07.196Z,17.53
2017-11-14T23:40:33.415Z,15.83
2017-11-14T23:42:59.684Z,17.87
2017-11-14T23:45:25.887Z,16.40
2017-11-14T23:47:52.105Z,16.57
2017-11-14T23:50:18.377Z,17.90
2017-11-14T23:52:44.641Z,17.17
2017-11-14T23:55:10.903Z,15.97
2017-11-14T23:57:37.109Z,15.83
